Time;durP1;ratioP1;P1;durP2;ratioP2;P2;SDS_P1;SDS_P2;PMS_P1;PMS_P2;Temp;Humidity;BMP_temperature;BMP_pressure;BME280_temperature;BME280_humidity;BME280_pressure;Samples;Min_cycle;Max_cycle;Signal;HPM_P1;HPM_P2
2022/08/10 00:01:12;;;;;;;12.07;6.72;;;;;;;23.91;45.91;95336.25;5072651;28;20040;-85
2022/08/10 00:03:37;;;;;;;9.88;6.85;;;;;;;24.34;45.25;95356.91;5072654;28;20029;-85
2022/08/10 00:06:03;;;;;;;12.10;6.78;;;;;;;23.75;45.51;95287.56;5071853;28;20027;-85
2022/08/10 00:08:28;;;;;;;15.02;6.82;;;;;;;23.75;45.99;95326.25;5072317;28;20086;-85
2022/08/10 00:10:55;;;;;;;12.13;6.63;;;;;;;23.81;45.81;95291.53;5071819;28;20094;-85
2022/08/10 00:13:23;;;;;;;13.38;7.28;;;;;;;24.41;45.74;95381.47;5071945;28;20067;-85
2022/08/10 00:15:49;;;;;;;21.10;7.05;;;;;;;24.06;45.66;95321.88;5071449;28;20032;-85
2022/08/10 00:18:14;;;;;;;15.35;6.68;;;;;;;24.31;46.16;95357.66;5072308;28;20051;-84
2022/08/10 00:20:40;;;;;;;9.45;6.35;;;;;;;24.39;46.45;95392.66;5073524;28;20032;-84
2022/08/10 00:23:05;;;;;;;14.75;7.50;;;;;;;24.60;46.46;95408.59;5077274;28;20040;-85
2022/08/10 00:25:31;;;;;;;10.60;6.82;;;;;;;24.48;46.13;95382.41;5076469;28;20059;-85
2022/08/10 00:27:56;;;;;;;11.15;6.78;;;;;;;24.06;45.74;95295.56;5072801;28;20415;-85
2022/08/10 00:30:22;;;;;;;13.70;7.20;;;;;;;24.38;46.56;95379.47;5071951;28;20129;-85
2022/08/10 00:32:47;;;;;;;15.15;6.85;;;;;;;24.01;45.83;95317.53;5072031;28;20033;-85
2022/08/10 00:35:13;;;;;;;12.23;6.75;;;;;;;23.73;45.70;95255.41;5072772;28;20043;-85
2022/08/10 00:37:38;;;;;;;19.15;7.28;;;;;;;24.32;45.71;95343.75;5072866;28;20033;-85
2022/08/10 00:40:04;;;;;;;10.00;6.95;;;;;;;24.42;45.62;95353.22;5086740;28;20056;-86
2022/08/10 00:42:30;;;;;;;10.13;6.95;;;;;;;24.71;46.35;95403.38;5092942;28;20052;-84
2022/08/10 00:44:55;;;;;;;11.57;6.88;;;;;;;24.33;46.19;95344.53;5074512;28;20143;-85
2022/08/10 00:47:21;;;;;;;10.20;6.88;;;;;;;24.44;45.88;95346.28;5074282;28;20487;-85
2022/08/10 00:49:47;;;;;;;12.88;6.53;;;;;;;24.79;46.19;95410.50;5110770;28;20036;-85
2022/08/10 00:52:14;;;;;;;12.70;6.50;;;;;;;24.38;46.42;95363.22;5094564;28;20059;-85
2022/08/10 00:54:42;;;;;;;10.27;6.60;;;;;;;24.64;46.24;95389.69;5094445;28;20032;-84
2022/08/10 00:57:08;;;;;;;13.75;7.00;;;;;;;24.78;46.07;95396.16;5093605;28;20036;-85
2022/08/10 00:59:34;;;;;;;15.57;6.80;;;;;;;24.14;46.24;95315.47;5094353;28;20486;-85
2022/08/10 01:02:00;;;;;;;9.23;6.95;;;;;;;23.80;46.63;95258.25;5094781;28;20038;-85
2022/08/10 01:04:25;;;;;;;16.65;7.18;;;;;;;24.64;46.44;95401.31;5112959;28;20086;-85
2022/08/10 01:07:19;;;;;;;16.30;7.00;;;;;;;24.14;47.56;95402.94;5094221;28;20067;-85
2022/08/10 01:10:37;;;;;;;12.88;6.93;;;;;;;23.98;47.47;95377.81;5112838;28;20509;-85
2022/08/10 01:13:12;;;;;;;11.50;6.78;;;;;;;23.60;47.65;95291.09;5013222;28;20531;-85
2022/08/10 01:15:46;;;;;;;16.48;6.45;;;;;;;23.51;49.34;95402.25;5082319;28;20046;-85
2022/08/10 01:18:15;;;;;;;15.10;7.15;;;;;;;23.11;49.04;95288.00;5111735;28;20520;-85
2022/08/10 01:21:15;;;;;;;10.82;6.38;;;;;;;24.05;48.93;95401.56;5083089;28;20056;-84
2022/08/10 01:24:18;;;;;;;14.18;7.38;;;;;;;24.16;48.50;95400.69;5105262;28;20023;-84
2022/08/10 01:27:02;;;;;;;9.77;6.97;;;;;;;24.28;48.41;95399.00;5104980;28;20033;-83
2022/08/10 01:29:54;;;;;;;11.65;6.30;;;;;;;24.03;48.59;95371.34;5096612;28;20127;-85
2022/08/10 01:32:58;;;;;;;12.82;6.97;;;;;;;24.19;48.62;95405.38;5095002;28;20142;-85
2022/08/10 01:35:32;;;;;;;11.30;6.85;;;;;;;24.09;48.26;95367.22;5091983;28;20044;-86
2022/08/10 01:38:41;;;;;;;19.13;7.25;;;;;;;24.11;48.49;95398.22;5097498;28;20054;-85
2022/08/10 01:41:20;;;;;;;12.27;6.82;;;;;;;23.04;49.21;95278.56;5097347;28;20040;-85
2022/08/10 01:43:54;;;;;;;9.05;6.78;;;;;;;23.79;49.35;95373.16;5098036;28;20035;-85
2022/08/10 01:46:23;;;;;;;11.60;7.32;;;;;;;22.56;51.34;95306.69;5097731;28;20023;-85
2022/08/10 01:48:54;;;;;;;9.48;6.43;;;;;;;22.10;52.23;95285.75;5098115;28;20558;-85
2022/08/10 01:51:31;;;;;;;11.80;7.07;;;;;;;23.24;51.66;95395.00;5116610;28;20032;-85
2022/08/10 01:54:04;;;;;;;11.05;7.22;;;;;;;23.42;51.12;95390.81;5116563;28;20429;-85
2022/08/10 01:56:33;;;;;;;9.85;7.35;;;;;;;23.33;51.22;95390.19;5100619;28;20031;-85
2022/08/10 01:59:06;;;;;;;10.40;6.60;;;;;;;22.34;51.80;95288.34;5125447;28;20031;-85
2022/08/10 02:01:37;;;;;;;14.18;7.28;;;;;;;23.26;51.58;95387.31;5103081;28;20035;-85
2022/08/10 02:04:09;;;;;;;10.93;6.57;;;;;;;22.90;51.34;95351.25;5116342;28;20043;-84
2022/08/10 02:06:42;;;;;;;8.10;6.80;;;;;;;22.55;51.28;95275.41;5091630;28;20037;-85
2022/08/10 02:09:11;;;;;;;8.90;7.20;;;;;;;23.36;50.96;95371.34;5108109;28;20054;-85
2022/08/10 02:11:37;;;;;;;10.70;6.10;;;;;;;22.96;50.46;95300.41;5097684;28;20027;-85
2022/08/10 02:14:04;;;;;;;8.88;6.40;;;;;;;22.83;50.39;95296.97;5096790;28;20088;-85
2022/08/10 02:16:31;;;;;;;10.15;7.30;;;;;;;23.12;50.04;95311.97;5097090;28;20350;-85
2022/08/10 02:18:59;;;;;;;10.35;6.75;;;;;;;23.06;50.11;95286.34;5116065;28;20486;-85
2022/08/10 02:21:26;;;;;;;10.75;6.30;;;;;;;23.40;49.54;95309.97;5115889;28;20091;-85
2022/08/10 02:23:53;;;;;;;16.77;6.88;;;;;;;23.75;49.10;95347.91;5097273;28;20040;-85
2022/08/10 02:26:19;;;;;;;9.07;6.85;;;;;;;22.95;49.57;95269.09;5096921;28;20528;-85
2022/08/10 02:28:45;;;;;;;13.00;6.63;;;;;;;23.64;49.74;95355.03;5115112;28;20039;-85
2022/08/10 02:31:23;;;;;;;10.60;7.32;;;;;;;23.03;50.66;95279.72;5096648;28;20043;-85
2022/08/10 02:33:53;;;;;;;14.30;6.68;;;;;;;23.31;49.93;95331.00;5096884;28;20528;-85
2022/08/10 02:36:21;;;;;;;9.80;6.18;;;;;;;23.51;50.47;95385.22;5096760;28;20030;-85
2022/08/10 02:38:53;;;;;;;13.13;7.10;;;;;;;23.26;50.70;95341.31;5095499;28;20043;-85
2022/08/10 02:41:44;;;;;;;11.85;6.72;;;;;;;23.63;50.57;95401.41;5097156;28;20035;-85
2022/08/10 02:44:23;;;;;;;9.90;6.47;;;;;;;22.75;50.32;95241.16;5114840;28;20046;-85
2022/08/10 02:46:58;;;;;;;13.65;7.00;;;;;;;23.56;50.53;95363.31;5096735;28;20035;-86
2022/08/10 02:49:31;;;;;;;13.18;7.10;;;;;;;23.20;50.39;95304.81;5096313;28;20417;-85
2022/08/10 02:52:10;;;;;;;15.93;7.07;;;;;;;23.01;50.39;95284.69;5096512;28;20028;-85
2022/08/10 02:54:42;;;;;;;12.15;7.47;;;;;;;22.69;50.97;95264.16;5096458;28;20043;-85
2022/08/10 02:57:23;;;;;;;12.98;7.70;;;;;;;23.39;50.97;95384.19;5096043;28;20036;-85
2022/08/10 02:59:53;;;;;;;18.42;7.30;;;;;;;22.69;51.79;95308.19;5114928;28;20036;-85
2022/08/10 03:02:41;;;;;;;10.57;7.35;;;;;;;22.92;52.50;95367.13;5096329;28;20489;-85
2022/08/10 03:05:11;;;;;;;10.57;6.95;;;;;;;22.92;52.35;95373.31;5096489;28;20042;-85
2022/08/10 03:07:45;;;;;;;12.95;7.70;;;;;;;22.44;52.76;95303.25;5096402;28;20055;-85
2022/08/10 03:10:32;;;;;;;11.82;8.10;;;;;;;22.87;52.33;95343.06;5096379;28;20568;-85
2022/08/10 03:13:05;;;;;;;15.15;7.95;;;;;;;23.08;52.71;95401.19;5086282;28;20044;-85
2022/08/10 03:15:33;;;;;;;15.75;7.07;;;;;;;22.67;52.91;95350.22;5094556;28;20035;-85
2022/08/10 03:18:00;;;;;;;13.35;8.07;;;;;;;23.02;53.34;95404.50;5114853;28;20095;-85
2022/08/10 03:20:30;;;;;;;14.35;7.97;;;;;;;22.65;53.29;95347.88;5096371;28;20031;-85
2022/08/10 03:22:57;;;;;;;11.00;7.03;;;;;;;22.91;53.28;95387.97;5095186;28;20039;-85
2022/08/10 03:25:25;;;;;;;13.23;7.80;;;;;;;22.18;53.56;95288.31;5095522;28;20035;-85
2022/08/10 03:27:52;;;;;;;16.55;7.70;;;;;;;23.09;53.37;95410.09;5095605;28;20031;-85
2022/08/10 03:30:18;;;;;;;16.73;8.02;;;;;;;23.14;53.03;95417.16;5114684;28;20069;-85
2022/08/10 03:32:45;;;;;;;13.25;7.68;;;;;;;21.85;53.59;95258.81;5095604;28;20035;-86
2022/08/10 03:35:11;;;;;;;10.25;7.63;;;;;;;22.92;53.80;95421.22;5095827;28;20027;-85
2022/08/10 03:37:37;;;;;;;14.65;7.63;;;;;;;22.88;53.55;95404.91;5114496;28;20123;-85
2022/08/10 03:40:04;;;;;;;13.40;8.20;;;;;;;22.57;53.83;95378.56;5095240;28;20075;-86
2022/08/10 03:42:31;;;;;;;17.33;8.35;;;;;;;22.21;54.11;95333.53;5095563;28;20055;-86
2022/08/10 03:44:58;;;;;;;11.57;7.70;;;;;;;21.80;54.05;95258.25;5095358;28;20035;-86
2022/08/10 03:47:28;;;;;;;15.18;8.05;;;;;;;22.39;53.95;95342.13;5095458;28;20020;-85
2022/08/10 03:49:55;;;;;;;13.85;7.68;;;;;;;22.56;54.28;95387.00;5095362;28;20127;-85
2022/08/10 03:52:21;;;;;;;11.15;7.03;;;;;;;22.52;54.12;95375.28;5095517;28;20215;-85
2022/08/10 03:54:50;;;;;;;11.88;8.32;;;;;;;22.49;53.91;95389.50;5095166;28;20027;-85
2022/08/10 03:57:16;;;;;;;10.07;7.18;;;;;;;22.63;53.99;95392.59;5094727;28;20055;-85
2022/08/10 03:59:42;;;;;;;18.17;7.53;;;;;;;22.91;54.03;95433.16;5094741;28;20066;-85
2022/08/10 04:02:08;;;;;;;21.60;8.45;;;;;;;22.41;54.21;95366.91;5094972;28;20027;-85
2022/08/10 04:04:33;;;;;;;15.73;8.18;;;;;;;22.88;53.88;95439.28;5113494;28;20048;-85
2022/08/10 04:07:01;;;;;;;12.52;8.40;;;;;;;22.84;54.17;95432.97;5113970;28;20020;-85
2022/08/10 04:09:32;;;;;;;14.20;7.53;;;;;;;22.16;54.83;95405.91;5095157;28;20478;-86
2022/08/10 04:11:58;;;;;;;12.13;8.48;;;;;;;21.75;55.35;95339.47;5095106;28;20035;-85
2022/08/10 04:14:23;;;;;;;14.35;8.57;;;;;;;21.78;55.19;95349.59;5091669;28;20031;-85
2022/08/10 04:16:49;;;;;;;13.95;8.05;;;;;;;22.30;55.06;95420.63;5085063;28;20035;-86
2022/08/10 04:19:17;;;;;;;15.23;7.72;;;;;;;22.49;55.04;95443.56;5091735;28;20024;-85
2022/08/10 04:21:46;;;;;;;15.18;8.70;;;;;;;22.54;54.86;95443.31;5095273;28;20028;-85
2022/08/10 04:24:17;;;;;;;12.30;8.52;;;;;;;22.49;54.97;95432.75;5094515;28;20409;-85
2022/08/10 04:26:44;;;;;;;15.23;8.55;;;;;;;22.58;54.73;95422.59;5084516;28;20035;-85
2022/08/10 04:29:09;;;;;;;15.15;7.95;;;;;;;22.04;54.92;95368.16;5109152;28;20027;-85
2022/08/10 04:31:36;;;;;;;19.08;8.70;;;;;;;21.69;55.41;95332.72;5095072;28;20065;-85
2022/08/10 04:34:02;;;;;;;15.45;9.05;;;;;;;21.81;55.60;95347.00;5094359;28;20034;-85
2022/08/10 04:36:29;;;;;;;14.27;8.43;;;;;;;22.23;54.86;95395.31;5094778;28;20027;-85
2022/08/10 04:38:55;;;;;;;12.88;8.35;;;;;;;22.62;55.03;95445.88;5085211;28;20347;-85
2022/08/10 04:41:21;;;;;;;15.55;8.27;;;;;;;22.27;56.44;95451.03;5090366;28;20047;-85
2022/08/10 04:43:46;;;;;;;12.50;8.95;;;;;;;22.35;56.42;95453.94;5094963;28;20540;-85
2022/08/10 04:46:12;;;;;;;18.00;8.52;;;;;;;22.02;56.80;95427.88;5093667;28;20031;-85
2022/08/10 04:48:37;;;;;;;14.38;8.65;;;;;;;21.74;57.33;95381.09;5094438;28;20038;-86
2022/08/10 04:51:04;;;;;;;14.10;8.48;;;;;;;22.19;57.52;95443.84;5112937;28;20397;-85
2022/08/10 04:53:29;;;;;;;13.55;9.80;;;;;;;21.66;57.91;95379.31;5095077;28;20043;-85
2022/08/10 04:55:55;;;;;;;16.52;9.40;;;;;;;21.84;57.57;95370.59;5094268;28;20035;-85
2022/08/10 04:58:20;;;;;;;14.02;8.93;;;;;;;22.14;56.99;95416.25;5094156;28;20059;-85
2022/08/10 05:00:45;;;;;;;14.10;9.13;;;;;;;21.79;57.85;95414.03;5094732;28;20035;-85
2022/08/10 05:03:11;;;;;;;12.48;8.45;;;;;;;22.13;57.71;95452.50;5088663;28;20289;-85
2022/08/10 05:05:36;;;;;;;19.33;9.90;;;;;;;21.78;58.77;95436.75;5100977;28;20028;-85
2022/08/10 05:08:02;;;;;;;16.15;10.57;;;;;;;21.21;58.88;95337.03;5100759;28;20043;-85
2022/08/10 05:10:28;;;;;;;16.63;9.48;;;;;;;21.03;59.58;95335.66;5119853;28;20510;-85
2022/08/10 05:12:53;;;;;;;13.27;9.20;;;;;;;21.80;59.84;95456.13;5101117;28;20027;-85
2022/08/10 05:15:22;;;;;;;13.73;9.43;;;;;;;21.64;59.64;95413.94;5119833;27;20027;-85
2022/08/10 05:25:44;;;;;;;16.27;10.00;;;;;;;21.73;59.98;95433.50;5127893;27;20637;-85
2022/08/10 05:28:10;;;;;;;30.67;11.02;;;;;;;21.15;59.60;95347.22;5165059;27;20268;-85
2022/08/10 05:30:35;;;;;;;14.00;9.90;;;;;;;21.19;59.93;95393.22;5130001;27;20031;-85
2022/08/10 05:33:01;;;;;;;10.45;8.35;;;;;;;21.66;59.57;95462.97;5129800;28;20035;-86
2022/08/10 05:35:28;;;;;;;14.73;10.32;;;;;;;21.27;59.83;95381.56;5114461;28;20020;-85
2022/08/10 05:37:55;;;;;;;15.93;9.75;;;;;;;21.26;59.64;95388.06;5108862;28;20085;-86
2022/08/10 05:40:22;;;;;;;14.82;10.18;;;;;;;21.86;59.60;95451.28;5108685;28;20040;-85
2022/08/10 05:42:47;;;;;;;22.02;10.80;;;;;;;21.13;60.12;95372.97;5111518;28;20028;-85
2022/08/10 05:45:33;;;;;;;13.65;10.10;;;;;;;21.82;60.38;95461.94;5109835;28;20039;-85
2022/08/10 05:47:59;;;;;;;12.27;10.27;;;;;;;21.11;60.27;95354.44;5122342;28;20052;-85
2022/08/10 05:50:27;;;;;;;15.32;10.98;;;;;;;21.39;60.46;95408.53;5108414;28;20046;-85
2022/08/10 05:52:53;;;;;;;13.23;10.05;;;;;;;21.73;59.91;95445.09;5107365;28;20024;-85
2022/08/10 05:55:19;;;;;;;23.67;11.68;;;;;;;21.90;60.42;95454.84;5109005;28;20525;-85
2022/08/10 05:57:46;;;;;;;16.88;11.32;;;;;;;21.35;60.10;95364.47;5108873;27;20024;-85
2022/08/10 06:00:17;;;;;;;20.83;11.32;;;;;;;21.63;60.30;95396.94;5108616;28;20039;-85
2022/08/10 06:02:44;;;;;;;;;;;;;;;22.03;59.70;95448.38;5109117;28;20115;-85
2022/08/10 06:05:11;;;;;;;18.42;10.70;;;;;;;22.12;59.72;95453.66;5108222;28;19916;-85
2022/08/10 06:07:41;;;;;;;16.95;11.38;;;;;;;22.16;59.61;95444.53;5109517;28;20525;-85
2022/08/10 06:10:11;;;;;;;18.20;11.60;;;;;;;22.00;59.58;95423.94;5109331;28;20424;-85
2022/08/10 06:12:39;;;;;;;24.17;12.10;;;;;;;22.30;59.46;95444.94;5107842;28;20553;-85
2022/08/10 06:15:06;;;;;;;24.42;11.55;;;;;;;21.99;58.99;95381.88;5107737;28;20032;-85
2022/08/10 06:17:32;;;;;;;17.13;11.80;;;;;;;21.97;58.94;95381.44;5107769;28;20032;-85
2022/08/10 06:19:59;;;;;;;18.05;11.27;;;;;;;21.98;58.50;95383.78;5107395;28;20050;-85
2022/08/10 06:22:26;;;;;;;24.10;11.95;;;;;;;22.24;58.69;95411.19;5109003;28;20035;-85
2022/08/10 06:24:54;;;;;;;17.75;12.07;;;;;;;22.18;58.50;95407.16;5107853;28;20074;-85
2022/08/10 06:27:20;;;;;;;13.80;11.95;;;;;;;22.21;58.50;95409.16;5107005;28;20055;-84
2022/08/10 06:29:48;;;;;;;15.65;12.05;;;;;;;22.66;58.17;95448.66;5106782;28;20055;-85
2022/08/10 06:32:15;;;;;;;20.15;11.50;;;;;;;22.66;58.29;95446.75;5106590;28;20034;-85
2022/08/10 06:34:49;;;;;;;16.33;11.75;;;;;;;22.38;57.44;95423.53;5108129;28;20063;-85
2022/08/10 06:37:18;;;;;;;15.07;11.90;;;;;;;20.99;57.08;95226.88;5092918;28;20035;-85
2022/08/10 06:39:44;;;;;;;14.90;11.88;;;;;;;22.55;57.67;95453.00;5094112;28;20302;-85
2022/08/10 06:42:14;;;;;;;22.73;12.63;;;;;;;22.66;57.38;95462.97;5093080;28;20028;-85
2022/08/10 06:44:53;;;;;;;18.33;12.53;;;;;;;22.12;57.29;95356.41;5093216;28;20035;-85
2022/08/10 06:47:21;;;;;;;24.70;13.55;;;;;;;22.26;57.98;95387.31;5093252;28;20028;-85
2022/08/10 06:49:50;;;;;;;17.92;13.48;;;;;;;22.66;57.03;95437.84;5093358;28;20498;-85
2022/08/10 06:52:18;;;;;;;21.98;13.13;;;;;;;22.20;56.97;95358.97;5092871;28;20413;-84
2022/08/10 06:54:43;;;;;;;14.50;11.52;;;;;;;22.78;55.95;95451.38;5093463;28;20078;-85
2022/08/10 06:57:10;;;;;;;15.30;10.65;;;;;;;22.22;55.08;95353.22;5094726;28;20028;-85
2022/08/10 06:59:48;;;;;;;15.40;10.68;;;;;;;22.95;55.07;95453.78;5093699;28;20036;-85
2022/08/10 07:02:31;;;;;;;19.85;12.70;;;;;;;22.59;55.32;95386.28;5093756;28;20032;-85
2022/08/10 07:05:10;;;;;;;19.85;14.05;;;;;;;22.73;56.08;95384.00;5127133;27;20035;-85
2022/08/10 07:07:39;;;;;;;16.55;11.85;;;;;;;22.60;54.56;95352.72;5092629;28;20126;-85
2022/08/10 07:10:07;;;;;;;19.58;12.13;;;;;;;23.08;54.75;95405.81;5092439;28;20049;-85
2022/08/10 07:12:35;;;;;;;19.85;12.68;;;;;;;23.05;54.15;95374.81;5092859;28;20031;-85
2022/08/10 07:15:02;;;;;;;16.55;11.82;;;;;;;23.57;53.31;95438.00;5094461;28;20107;-85
2022/08/10 07:17:30;;;;;;;19.02;12.45;;;;;;;23.12;53.18;95359.88;5092327;28;20583;-85
2022/08/10 07:19:58;;;;;;;17.70;11.23;;;;;;;23.66;52.87;95438.59;5094588;28;20024;-86
2022/08/10 07:22:30;;;;;;;17.85;10.18;;;;;;;23.41;52.65;95408.19;5091981;28;20049;-85
2022/08/10 07:24:59;;;;;;;17.00;12.10;;;;;;;23.46;52.40;95399.78;5091961;28;20041;-85
2022/08/10 07:27:26;;;;;;;15.05;11.23;;;;;;;22.49;52.09;95246.28;5092936;28;20058;-85
2022/08/10 07:29:53;;;;;;;26.13;12.98;;;;;;;23.47;52.61;95398.66;5092525;28;20036;-86
2022/08/10 07:32:21;;;;;;;19.42;12.50;;;;;;;22.50;52.74;95226.22;5093129;28;20032;-85
2022/08/10 07:34:52;;;;;;;19.55;11.27;;;;;;;23.52;51.75;95420.06;5125683;27;20462;-85
2022/08/10 07:37:18;;;;;;;19.17;12.17;;;;;;;24.02;51.79;95451.06;5093199;28;20357;-85
2022/08/10 07:39:47;;;;;;;15.43;12.25;;;;;;;23.24;52.36;95344.38;5094052;28;20360;-85
2022/08/10 07:42:16;;;;;;;15.50;11.55;;;;;;;23.10;51.58;95319.69;5091499;28;20028;-85
2022/08/10 07:44:44;;;;;;;14.80;11.23;;;;;;;23.94;51.11;95444.69;5092900;28;20096;-85
2022/08/10 07:47:14;;;;;;;21.42;12.10;;;;;;;22.41;51.57;95185.06;5091611;28;20082;-85
2022/08/10 07:49:43;;;;;;;20.15;12.20;;;;;;;21.92;51.68;95102.41;5093304;28;20497;-85
2022/08/10 07:52:10;;;;;;;15.85;10.82;;;;;;;23.71;50.56;95384.19;5093623;28;20085;-85
2022/08/10 07:54:49;;;;;;;12.15;10.07;;;;;;;23.50;49.61;95335.72;5093544;28;20419;-85
2022/08/10 07:57:24;;;;;;;14.07;10.32;;;;;;;24.31;49.12;95442.44;5092334;28;20020;-85
2022/08/10 08:00:04;;;;;;;15.13;10.48;;;;;;;24.05;49.49;95374.47;5093076;28;20024;-86
2022/08/10 08:02:36;;;;;;;15.55;8.85;;;;;;;24.36;48.05;95401.50;5089050;28;20036;-86
2022/08/10 08:05:07;;;;;;;19.95;8.55;;;;;;;23.93;46.84;95325.84;5091639;28;20037;-85
2022/08/10 08:07:33;;;;;;;14.52;8.60;;;;;;;24.09;46.71;95327.38;5091637;28;20036;-85
2022/08/10 08:10:01;;;;;;;12.25;8.15;;;;;;;24.41;47.27;95390.38;5092810;28;20132;-85
2022/08/10 08:12:28;;;;;;;12.65;8.43;;;;;;;24.10;47.20;95342.50;5091164;28;20032;-85
2022/08/10 08:14:57;;;;;;;14.50;8.60;;;;;;;24.79;46.46;95429.50;5125593;27;20031;-85
2022/08/10 08:17:25;;;;;;;14.00;8.65;;;;;;;25.01;46.21;95426.06;5125185;27;20131;-85
2022/08/10 08:19:53;;;;;;;13.43;7.90;;;;;;;24.69;45.76;95362.25;5124794;27;20316;-85
2022/08/10 08:22:19;;;;;;;10.98;6.57;;;;;;;24.24;43.96;95271.56;5125382;27;20032;-85
2022/08/10 08:24:46;;;;;;;10.35;7.68;;;;;;;24.90;44.47;95357.22;5126168;27;20048;-85
2022/08/10 08:27:18;;;;;;;12.90;8.82;;;;;;;24.70;45.33;95325.88;5092750;28;20036;-85
2022/08/10 08:29:46;;;;;;;13.23;7.78;;;;;;;24.40;45.71;95304.78;5092190;28;20040;-85
2022/08/10 08:32:16;;;;;;;16.08;8.95;;;;;;;25.23;46.09;95400.09;5093436;28;20044;-85
2022/08/10 08:34:44;;;;;;;12.50;6.93;;;;;;;25.27;44.42;95400.94;5091977;28;20028;-85
2022/08/10 08:37:11;;;;;;;14.90;6.90;;;;;;;25.12;44.35;95367.34;5091049;28;20051;-85
2022/08/10 08:39:37;;;;;;;9.75;8.07;;;;;;;24.98;44.57;95323.69;5091745;28;20130;-85
2022/08/10 08:42:14;;;;;;;11.73;7.78;;;;;;;25.55;44.66;95406.88;5093671;28;20036;-85
2022/08/10 08:45:17;;;;;;;14.35;8.77;;;;;;;25.66;45.14;95409.75;5091399;28;20064;-85
2022/08/10 08:48:19;;;;;;;13.40;8.80;;;;;;;24.96;45.03;95334.09;5092774;28;20071;-85
2022/08/10 08:50:59;;;;;;;18.80;10.30;;;;;;;25.66;45.82;95398.91;5091441;28;20449;-85
2022/08/10 08:54:06;;;;;;;12.55;8.98;;;;;;;25.31;44.86;95344.78;5093047;28;20036;-86
2022/08/10 08:57:07;;;;;;;15.27;8.55;;;;;;;25.73;44.60;95402.50;5086514;28;20097;-85
2022/08/10 08:59:50;;;;;;;15.17;8.40;;;;;;;25.90;44.21;95400.44;5095479;28;20039;-85
2022/08/10 09:02:54;;;;;;;13.93;8.32;;;;;;;25.90;44.59;95397.72;5091272;28;20047;-85
2022/08/10 09:06:03;;;;;;;14.93;9.57;;;;;;;25.91;44.91;95391.94;5067884;28;20538;-85
2022/08/10 09:08:28;;;;;;;15.18;9.55;;;;;;;26.10;44.66;95393.72;5092032;28;20035;-86
2022/08/10 09:11:07;;;;;;;15.45;8.77;;;;;;;26.16;44.37;95391.50;5094654;28;20061;-86
2022/08/10 09:13:43;;;;;;;10.32;8.70;;;;;;;25.62;43.92;95282.09;5094722;28;20096;-85
2022/08/10 09:16:47;;;;;;;12.32;7.55;;;;;;;26.27;42.54;95392.44;5113736;28;20085;-86
2022/08/10 09:19:18;;;;;;;11.05;8.13;;;;;;;25.87;43.56;95338.66;5081044;28;20048;-86
2022/08/10 09:21:48;;;;;;;11.95;9.38;;;;;;;26.32;44.17;95389.41;5094426;28;20038;-86
2022/08/10 09:24:44;;;;;;;14.05;8.52;;;;;;;26.41;43.84;95387.19;5094411;28;20181;-85
2022/08/10 09:27:22;;;;;;;13.30;7.88;;;;;;;25.74;43.33;95254.69;5079261;28;20118;-86
2022/08/10 09:29:59;;;;;;;16.67;6.75;;;;;;;26.82;41.22;95386.13;5112892;28;20023;-85
2022/08/10 09:32:47;;;;;;;11.68;5.85;;;;;;;26.98;39.98;95390.59;5094661;28;20046;-86
2022/08/10 09:35:54;;;;;;;6.55;4.15;;;;;;;27.09;39.99;95377.88;5112927;28;20027;-85
2022/08/10 09:38:53;;;;;;;10.63;4.70;;;;;;;26.97;39.42;95327.22;5096742;28;20050;-86
2022/08/10 09:41:19;;;;;;;13.57;6.18;;;;;;;27.41;39.61;95376.22;5090110;28;20434;-86
2022/08/10 09:43:50;;;;;;;5.10;4.15;;;;;;;27.31;39.19;95379.66;5114493;28;20031;-86
2022/08/10 09:46:24;;;;;;;12.05;5.13;;;;;;;27.14;39.60;95388.44;5114686;28;20035;-86
2022/08/10 09:49:03;;;;;;;14.82;5.38;;;;;;;27.39;39.30;95380.50;5114062;28;20037;-86
2022/08/10 09:52:01;;;;;;;8.27;4.63;;;;;;;27.34;39.52;95373.44;5133336;28;20412;-85
2022/08/10 09:54:36;;;;;;;10.23;5.00;;;;;;;27.35;39.85;95377.75;5111114;28;20414;-86
2022/08/10 09:57:36;;;;;;;6.28;4.28;;;;;;;27.80;38.74;95365.66;5111432;28;20032;-86
2022/08/10 10:00:14;;;;;;;10.25;4.40;;;;;;;28.25;38.21;95386.22;5033954;28;20780;-86
2022/08/10 10:02:53;;;;;;;7.88;4.18;;;;;;;28.45;36.80;95313.06;5092056;28;20101;-85
2022/08/10 10:05:34;;;;;;;6.75;3.97;;;;;;;29.87;35.43;95368.69;5111112;28;20034;-85
2022/08/10 10:08:20;;;;;;;8.77;4.53;;;;;;;30.88;33.97;95357.06;5133438;28;20371;-85
2022/08/10 10:11:23;;;;;;;6.43;4.07;;;;;;;31.27;32.02;95364.31;5101140;27;20528;-86
2022/08/10 10:14:07;;;;;;;5.63;3.75;;;;;;;31.69;31.21;95353.03;5136643;27;20038;-85
2022/08/10 10:16:39;;;;;;;7.50;4.00;;;;;;;32.45;30.61;95348.34;5118204;27;20034;-85
2022/08/10 10:19:58;;;;;;;9.18;4.07;;;;;;;32.55;30.06;95344.72;5118169;27;20122;-85
2022/08/10 10:22:45;;;;;;;7.88;4.15;;;;;;;32.96;29.67;95352.81;5050227;28;20460;-84
2022/08/10 10:25:27;;;;;;;8.25;3.85;;;;;;;33.08;29.17;95296.53;5111094;27;20413;-86
2022/08/10 10:28:21;;;;;;;10.27;4.28;;;;;;;32.88;29.78;95357.63;5117554;27;20057;-85
2022/08/10 10:31:14;;;;;;;7.28;4.07;;;;;;;32.27;30.49;95337.56;5117583;27;20020;-85
2022/08/10 10:33:58;;;;;;;10.55;4.25;;;;;;;32.04;31.38;95349.16;5078851;28;20047;-84
2022/08/10 10:36:26;;;;;;;10.85;4.30;;;;;;;31.24;32.23;95332.22;5134754;27;20035;-85
2022/08/10 10:38:54;;;;;;;11.23;4.75;;;;;;;30.47;33.22;95263.00;5136613;27;20516;-85
2022/08/10 10:41:35;;;;;;;13.00;4.93;;;;;;;30.20;33.60;95236.19;5119840;27;20099;-85
2022/08/10 10:44:21;;;;;;;10.68;4.47;;;;;;;30.74;32.68;95238.66;5120452;27;20034;-85
2022/08/10 10:47:14;;;;;;;6.43;4.43;;;;;;;32.00;31.77;95362.13;5130966;27;20087;-85
2022/08/10 10:50:01;;;;;;;5.75;3.72;;;;;;;31.47;31.41;95260.38;5118386;27;20166;-84
2022/08/10 10:53:07;;;;;;;13.85;4.63;;;;;;;32.26;31.31;95348.97;5135670;27;20034;-84
2022/08/10 10:55:47;;;;;;;9.00;4.10;;;;;;;32.56;30.61;95316.06;5117593;27;20035;-84
2022/08/10 10:58:25;;;;;;;4.93;3.97;;;;;;;32.45;30.78;95337.38;5117379;27;20031;-85
2022/08/10 11:00:57;;;;;;;14.48;4.68;;;;;;;32.25;31.29;95339.19;5135827;27;20030;-85
2022/08/10 11:03:34;;;;;;;6.28;4.13;;;;;;;31.84;31.33;95320.75;5116887;27;20042;-85
2022/08/10 11:06:27;;;;;;;14.50;4.40;;;;;;;32.30;31.75;95331.28;5117354;27;20027;-85
2022/08/10 11:08:59;;;;;;;6.15;4.18;;;;;;;31.61;31.59;95236.38;5135441;27;20118;-85
2022/08/10 11:11:31;;;;;;;6.72;4.97;;;;;;;32.44;30.60;95306.41;5116884;27;20037;-85
2022/08/10 11:14:04;;;;;;;9.07;4.18;;;;;;;33.15;30.36;95330.19;5135789;27;20481;-84
2022/08/10 11:16:46;;;;;;;11.48;4.32;;;;;;;33.31;30.42;95329.59;5134954;27;20027;-85
2022/08/10 11:19:33;;;;;;;8.25;3.75;;;;;;;33.16;29.46;95337.25;5151183;27;20099;-84
2022/08/10 11:22:11;;;;;;;5.95;4.38;;;;;;;33.03;29.89;95341.75;5115997;27;20034;-85
2022/08/10 11:24:55;;;;;;;8.18;4.30;;;;;;;32.71;30.18;95333.94;5134629;27;20176;-86
2022/08/10 11:27:38;;;;;;;8.60;4.40;;;;;;;32.68;29.81;95293.56;5151399;27;20081;-84
2022/08/10 11:30:07;;;;;;;7.45;4.75;;;;;;;32.44;30.05;95313.84;5134927;27;20221;-84
2022/08/10 11:33:13;;;;;;;12.48;4.18;;;;;;;31.94;30.75;95281.50;5107277;28;20413;-85
2022/08/10 11:35:49;;;;;;;12.60;4.85;;;;;;;31.48;31.71;95297.59;5100599;28;20130;-85
2022/08/10 11:38:53;;;;;;;7.53;4.70;;;;;;;31.88;31.36;95327.00;5114466;28;20106;-85
2022/08/10 11:41:45;;;;;;;6.63;4.45;;;;;;;32.17;30.83;95325.56;5061359;28;20050;-85
2022/08/10 11:44:23;;;;;;;8.65;4.40;;;;;;;31.20;32.15;95320.50;5094906;28;20643;-85
2022/08/10 11:47:11;;;;;;;7.60;4.60;;;;;;;31.04;32.55;95301.81;5130542;27;20084;-85
2022/08/10 11:49:57;;;;;;;10.10;4.28;;;;;;;30.88;32.82;95313.25;5129415;27;20417;-85
2022/08/10 11:52:35;;;;;;;7.18;4.95;;;;;;;31.03;32.98;95312.00;5129947;27;20031;-85
2022/08/10 11:55:11;;;;;;;7.63;4.55;;;;;;;31.10;33.29;95294.75;5096015;28;20410;-86
2022/08/10 11:57:37;;;;;;;9.45;4.63;;;;;;;31.21;32.92;95311.88;5095212;28;20028;-86
2022/08/10 12:00:06;;;;;;;7.63;4.32;;;;;;;30.79;33.29;95251.91;5095573;28;20055;-86
2022/08/10 12:02:54;;;;;;;8.43;4.80;;;;;;;30.29;33.50;95247.44;5113843;28;20031;-86